createdAt,value
2022-10-17T04:00:48.319Z,0.00
2022-10-17T04:01:49.640Z,0.00
2022-10-17T04:02:49.998Z,0.00
2022-10-17T04:03:50.364Z,0.00
2022-10-17T04:04:50.734Z,0.00
2022-10-17T04:05:51.087Z,0.00
2022-10-17T04:06:51.435Z,0.00
2022-10-17T04:07:51.827Z,0.00
2022-10-17T04:08:52.143Z,0.00
2022-10-17T04:09:52.555Z,0.00
2022-10-17T04:10:52.883Z,0.00
2022-10-17T04:11:53.246Z,0.00
2022-10-17T04:12:53.602Z,0.00
2022-10-17T04:13:53.991Z,0.00
2022-10-17T04:14:54.371Z,0.00
2022-10-17T04:15:54.740Z,0.00
2022-10-17T04:16:55.074Z,0.00
2022-10-17T04:17:55.515Z,0.00
2022-10-17T04:18:55.800Z,0.00
2022-10-17T04:19:56.151Z,0.00
2022-10-17T04:20:56.509Z,0.00
2022-10-17T04:21:56.850Z,0.00
2022-10-17T04:22:57.247Z,0.00
2022-10-17T04:23:57.563Z,0.00
2022-10-17T04:24:58.023Z,0.00
2022-10-17T04:25:58.303Z,0.00
2022-10-17T04:26:58.730Z,0.00
2022-10-17T04:27:59.031Z,0.00
2022-10-17T04:28:59.380Z,0.00
2022-10-17T04:29:59.771Z,0.00
2022-10-17T04:31:00.095Z,0.00
2022-10-17T04:32:00.459Z,0.00
2022-10-17T04:33:00.854Z,0.00
2022-10-17T04:34:01.198Z,0.00
2022-10-17T04:35:01.629Z,0.00
2022-10-17T04:36:01.905Z,0.00
2022-10-17T04:37:02.265Z,0.00
2022-10-17T04:38:02.648Z,0.00
2022-10-17T04:39:03.008Z,0.00
2022-10-17T04:40:03.347Z,0.00
2022-10-17T04:41:03.715Z,0.00
2022-10-17T04:42:04.071Z,0.00
2022-10-17T04:43:04.441Z,0.00
2022-10-17T04:44:04.815Z,0.00
2022-10-17T04:45:05.207Z,0.00
2022-10-17T04:46:05.555Z,0.00
2022-10-17T04:47:05.870Z,0.00
2022-10-17T04:48:06.243Z,0.00
2022-10-17T04:49:06.617Z,0.00
2022-10-17T04:50:06.985Z,0.00
2022-10-17T04:51:07.303Z,0.00
2022-10-17T04:52:07.655Z,0.00
2022-10-17T04:53:08.008Z,0.00
2022-10-17T04:54:08.416Z,0.00
2022-10-17T04:55:08.750Z,0.00
2022-10-17T04:56:09.099Z,0.00
2022-10-17T04:57:09.474Z,0.00
2022-10-17T04:58:09.846Z,0.00
2022-10-17T04:59:10.208Z,0.00
2022-10-17T05:00:10.648Z,0.00
2022-10-17T05:01:11.131Z,0.00
2022-10-17T05:02:11.309Z,0.00
2022-10-17T05:03:11.687Z,0.00
2022-10-17T05:04:12.085Z,0.00
2022-10-17T05:05:12.553Z,0.00
2022-10-17T05:06:12.787Z,0.00
2022-10-17T05:07:13.143Z,0.00
2022-10-17T05:08:13.500Z,0.00
2022-10-17T05:09:13.863Z,0.00
2022-10-17T05:10:14.318Z,0.00
2022-10-17T05:11:14.626Z,0.00
2022-10-17T05:12:14.955Z,0.00
2022-10-17T05:13:15.390Z,0.00
2022-10-17T05:14:15.676Z,0.00
2022-10-17T05:15:16.035Z,0.00
2022-10-17T05:16:16.433Z,0.00
2022-10-17T05:17:16.790Z,0.00
2022-10-17T05:18:17.139Z,0.00
2022-10-17T05:19:17.276Z,0.00
2022-10-17T05:20:17.454Z,0.00
2022-10-17T05:21:17.702Z,0.00
2022-10-17T05:22:17.870Z,0.00
2022-10-17T05:23:18.173Z,0.00
2022-10-17T05:24:18.341Z,0.00
2022-10-17T05:25:18.512Z,0.00
2022-10-17T05:26:18.667Z,0.00
2022-10-17T05:27:18.839Z,0.00
2022-10-17T05:28:19.003Z,0.00
2022-10-17T05:29:19.166Z,0.00
2022-10-17T05:30:19.475Z,0.00
2022-10-17T05:31:19.632Z,0.00
2022-10-17T05:32:19.804Z,0.00
2022-10-17T05:33:20.001Z,0.00
2022-10-17T05:34:20.248Z,0.00
2022-10-17T05:35:20.354Z,0.00
2022-10-17T05:36:20.654Z,0.00
2022-10-17T05:37:20.812Z,0.00
2022-10-17T05:38:21.101Z,0.00
2022-10-17T05:39:21.285Z,0.00
2022-10-17T05:40:21.617Z,0.00
2022-10-17T05:41:21.765Z,0.00
2022-10-17T05:42:22.000Z,0.00
2022-10-17T05:43:22.265Z,0.00
2022-10-17T05:44:22.508Z,0.00
2022-10-17T05:45:22.773Z,5.62
2022-10-17T05:46:22.867Z,5.62
2022-10-17T05:47:23.047Z,5.62
2022-10-17T05:48:23.347Z,5.62
2022-10-17T05:49:33.380Z,5.62
2022-10-17T05:50:23.840Z,5.62
2022-10-17T05:51:24.115Z,5.62
2022-10-17T05:52:24.331Z,11.25
2022-10-17T05:53:24.474Z,11.25
2022-10-17T05:54:24.666Z,11.25
2022-10-17T05:55:24.904Z,11.25
2022-10-17T05:56:25.026Z,11.25
2022-10-17T05:57:25.214Z,11.25
2022-10-17T05:58:45.571Z,16.88
2022-10-17T05:59:25.598Z,16.88
2022-10-17T06:00:25.790Z,16.88
2022-10-17T06:01:25.959Z,22.50
2022-10-17T06:02:26.264Z,22.50
2022-10-17T06:03:26.314Z,22.50
2022-10-17T06:04:26.660Z,22.50
2022-10-17T06:05:26.715Z,28.12
2022-10-17T06:06:26.912Z,28.12
2022-10-17T06:07:27.075Z,33.75
2022-10-17T06:08:27.240Z,33.75
2022-10-17T06:09:27.418Z,33.75
2022-10-17T06:10:27.636Z,39.38
2022-10-17T06:11:27.803Z,39.38
2022-10-17T06:12:28.220Z,45.00
2022-10-17T06:13:28.132Z,45.00
2022-10-17T06:14:28.303Z,45.00
2022-10-17T06:15:28.512Z,50.62
2022-10-17T06:16:28.647Z,50.62
2022-10-17T06:17:28.834Z,50.62
2022-10-17T06:18:29.021Z,50.62
2022-10-17T06:19:29.182Z,56.25
2022-10-17T06:20:29.378Z,56.25
2022-10-17T06:21:29.656Z,56.25
2022-10-17T06:22:30.180Z,61.88
2022-10-17T06:23:30.000Z,61.88
2022-10-17T06:24:30.161Z,61.88
2022-10-17T06:25:30.370Z,61.88
2022-10-17T06:26:30.535Z,61.88
2022-10-17T06:27:30.716Z,67.50
2022-10-17T06:28:30.953Z,67.50
2022-10-17T06:29:31.153Z,73.12
2022-10-17T06:30:31.309Z,73.12
2022-10-17T06:31:31.499Z,78.75
2022-10-17T06:32:32.074Z,78.75
2022-10-17T06:33:31.823Z,84.38
2022-10-17T06:34:32.034Z,90.00
2022-10-17T06:35:32.194Z,90.00
2022-10-17T06:36:32.376Z,95.62
2022-10-17T06:37:35.562Z,101.25
2022-10-17T06:38:32.765Z,101.25
2022-10-17T06:39:32.945Z,106.88
2022-10-17T06:40:33.156Z,112.50
2022-10-17T06:41:33.328Z,112.50
2022-10-17T06:42:33.488Z,118.12
2022-10-17T06:43:33.749Z,118.12
2022-10-17T06:44:33.870Z,118.12
2022-10-17T06:45:34.113Z,123.75
2022-10-17T06:46:34.327Z,123.75
2022-10-17T06:47:34.413Z,123.75
2022-10-17T06:48:34.639Z,129.38
2022-10-17T06:49:34.801Z,129.38
2022-10-17T06:50:35.052Z,129.38
2022-10-17T06:51:35.198Z,135.00
2022-10-17T06:52:35.389Z,135.00
2022-10-17T06:53:35.588Z,135.00
2022-10-17T06:54:35.809Z,140.62
2022-10-17T06:55:36.022Z,140.62
2022-10-17T06:56:36.166Z,146.25
2022-10-17T06:57:36.338Z,146.25
2022-10-17T06:58:36.500Z,146.25
2022-10-17T06:59:36.706Z,146.25
2022-10-17T07:00:37.162Z,146.25
2022-10-17T07:01:37.421Z,151.88
2022-10-17T07:02:37.235Z,151.88
2022-10-17T07:03:37.435Z,163.12
2022-10-17T07:04:37.619Z,168.75
2022-10-17T07:05:37.838Z,174.38
2022-10-17T07:06:38.005Z,180.00
2022-10-17T07:07:40.187Z,180.00
2022-10-17T07:08:38.422Z,185.62
2022-10-17T07:09:38.599Z,185.62
2022-10-17T07:10:38.783Z,191.25
2022-10-17T07:11:38.976Z,191.25
2022-10-17T07:12:39.121Z,196.88
2022-10-17T07:13:39.528Z,208.12
2022-10-17T07:14:39.554Z,213.75
2022-10-17T07:15:39.699Z,213.75
2022-10-17T07:16:39.889Z,219.38
2022-10-17T07:17:40.095Z,219.38
2022-10-17T07:18:40.298Z,230.62
2022-10-17T07:19:40.516Z,225.00
2022-10-17T07:20:40.719Z,225.00
2022-10-17T07:21:40.879Z,213.75
2022-10-17T07:22:41.082Z,213.75
2022-10-17T07:23:41.278Z,208.12
2022-10-17T07:24:41.505Z,208.12
2022-10-17T07:25:41.682Z,202.50
2022-10-17T07:26:41.845Z,196.88
2022-10-17T07:27:42.055Z,185.62
2022-10-17T07:28:42.302Z,185.62
2022-10-17T07:29:42.492Z,180.00
2022-10-17T07:30:42.709Z,180.00
2022-10-17T07:31:42.853Z,180.00
2022-10-17T07:32:43.017Z,180.00
2022-10-17T07:33:43.423Z,174.38
2022-10-17T07:34:43.379Z,174.38
2022-10-17T07:35:43.601Z,174.38
2022-10-17T07:36:43.764Z,174.38
2022-10-17T07:37:43.970Z,191.25
2022-10-17T07:38:44.169Z,202.50
2022-10-17T07:39:44.391Z,219.38
2022-10-17T07:40:44.555Z,225.00
2022-10-17T07:41:44.721Z,236.25
2022-10-17T07:42:44.957Z,253.12
2022-10-17T07:43:45.112Z,281.25
2022-10-17T07:44:45.306Z,298.12
2022-10-17T07:45:45.505Z,315.00
2022-10-17T07:46:45.668Z,320.62
2022-10-17T07:47:45.879Z,320.62
2022-10-17T07:48:46.057Z,326.25
2022-10-17T07:49:46.280Z,337.50
2022-10-17T07:50:46.434Z,365.62
2022-10-17T07:52:46.794Z,410.62
2022-10-17T07:53:48.822Z,421.88
2022-10-17T07:54:47.184Z,427.50
2022-10-17T07:55:47.363Z,438.75
2022-10-17T07:56:47.558Z,444.38
2022-10-17T07:57:47.745Z,438.75
2022-10-17T07:58:47.981Z,438.75
2022-10-17T07:59:48.111Z,438.75
2022-10-17T08:00:48.602Z,438.75
2022-10-17T08:01:48.476Z,433.12
2022-10-17T08:02:48.722Z,410.62
2022-10-17T08:03:48.863Z,388.12
2022-10-17T08:04:49.020Z,371.25
2022-10-17T08:05:49.237Z,354.38
2022-10-17T08:06:53.444Z,343.12
2022-10-17T08:07:49.597Z,326.25
2022-10-17T08:08:49.786Z,315.00
2022-10-17T08:09:50.000Z,303.75
2022-10-17T08:10:50.187Z,298.12
2022-10-17T08:11:50.406Z,292.50
2022-10-17T08:12:50.519Z,286.88
2022-10-17T08:13:50.738Z,286.88
2022-10-17T08:14:50.929Z,292.50
2022-10-17T08:15:51.156Z,292.50
2022-10-17T08:16:51.285Z,298.12
2022-10-17T08:17:51.480Z,303.75
2022-10-17T08:18:51.654Z,320.62
2022-10-17T08:19:51.871Z,337.50
2022-10-17T08:20:54.623Z,337.50
2022-10-17T08:21:52.230Z,343.12
2022-10-17T08:22:52.429Z,348.75
2022-10-17T08:23:52.630Z,354.38
2022-10-17T08:24:52.806Z,354.38
2022-10-17T08:25:53.040Z,348.75
2022-10-17T08:26:53.199Z,337.50
2022-10-17T08:27:53.481Z,331.88
2022-10-17T08:28:53.633Z,331.88
2022-10-17T08:29:53.761Z,337.50
2022-10-17T08:30:53.980Z,348.75
2022-10-17T08:31:58.614Z,348.75
2022-10-17T08:32:54.356Z,348.75
2022-10-17T08:33:54.514Z,348.75
2022-10-17T08:34:54.682Z,343.12
2022-10-17T08:35:54.883Z,343.12
2022-10-17T08:36:55.045Z,343.12
2022-10-17T08:37:55.247Z,326.25
2022-10-17T08:38:55.470Z,309.38
2022-10-17T08:39:55.637Z,309.38
2022-10-17T08:40:55.858Z,315.00
2022-10-17T08:41:56.022Z,343.12
2022-10-17T08:42:56.223Z,371.25
2022-10-17T08:43:56.436Z,405.00
2022-10-17T08:44:56.625Z,427.50
2022-10-17T08:45:56.850Z,455.62
2022-10-17T08:46:57.024Z,461.25
2022-10-17T08:47:57.227Z,466.88
2022-10-17T08:48:57.383Z,478.12
2022-10-17T08:49:57.783Z,495.00
2022-10-17T08:50:57.778Z,517.50
2022-10-17T08:51:57.956Z,540.00
2022-10-17T08:52:58.131Z,545.62
2022-10-17T08:53:58.345Z,540.00
2022-10-17T08:54:58.551Z,534.38
2022-10-17T08:55:58.779Z,534.38
2022-10-17T08:56:58.950Z,545.62
2022-10-17T08:57:59.121Z,556.88
2022-10-17T08:58:59.312Z,551.25
2022-10-17T08:59:59.513Z,545.62
2022-10-17T09:00:59.734Z,551.25
2022-10-17T09:01:59.898Z,556.88
2022-10-17T09:03:00.190Z,562.50
2022-10-17T09:04:00.258Z,568.12
2022-10-17T09:05:00.432Z,562.50
2022-10-17T09:06:00.648Z,540.00
2022-10-17T09:07:00.815Z,528.75
2022-10-17T09:08:01.029Z,534.38
2022-10-17T09:09:01.192Z,528.75
2022-10-17T09:10:01.401Z,517.50
2022-10-17T09:11:01.601Z,495.00
2022-10-17T09:12:01.788Z,461.25
2022-10-17T09:13:07.042Z,444.38
2022-10-17T09:14:02.162Z,438.75
2022-10-17T09:15:02.348Z,438.75
2022-10-17T09:16:02.586Z,438.75
2022-10-17T09:17:02.744Z,444.38
2022-10-17T09:18:02.954Z,444.38
2022-10-17T09:19:03.141Z,450.00
2022-10-17T09:20:03.358Z,466.88
2022-10-17T09:21:03.556Z,472.50
2022-10-17T09:22:03.749Z,466.88
2022-10-17T09:23:03.965Z,455.62
2022-10-17T09:24:09.481Z,444.38
2022-10-17T09:25:04.291Z,455.62
2022-10-17T09:26:04.508Z,438.75
2022-10-17T09:27:04.699Z,421.88
2022-10-17T09:28:04.893Z,405.00
2022-10-17T09:29:05.107Z,393.75
2022-10-17T09:30:07.140Z,382.50
2022-10-17T09:31:05.432Z,399.38
2022-10-17T09:32:05.598Z,393.75
2022-10-17T09:33:05.815Z,405.00
2022-10-17T09:34:05.985Z,416.25
2022-10-17T09:35:06.166Z,433.12
2022-10-17T09:36:06.342Z,438.75
2022-10-17T09:37:06.509Z,461.25
2022-10-17T09:38:06.724Z,461.25
2022-10-17T09:39:06.888Z,472.50
2022-10-17T09:40:07.059Z,478.12
2022-10-17T09:41:25.573Z,478.12
2022-10-17T09:42:07.399Z,483.75
2022-10-17T09:43:07.572Z,483.75
2022-10-17T09:44:07.790Z,478.12
2022-10-17T09:45:07.960Z,483.75
2022-10-17T09:46:08.152Z,483.75
2022-10-17T09:47:08.371Z,495.00
2022-10-17T09:48:08.499Z,506.25
2022-10-17T09:49:10.276Z,511.88
2022-10-17T09:50:08.907Z,528.75
2022-10-17T09:51:21.942Z,534.38
2022-10-17T09:52:09.300Z,540.00
2022-10-17T09:53:09.452Z,540.00
2022-10-17T09:54:09.636Z,551.25
2022-10-17T09:55:09.878Z,573.75
2022-10-17T09:56:10.025Z,607.50
2022-10-17T09:57:10.233Z,635.62
2022-10-17T09:58:10.368Z,641.25
2022-10-17T09:59:13.798Z,624.38
2022-10-17T10:00:10.803Z,601.88
2022-10-17T10:01:11.015Z,579.38
2022-10-17T10:02:11.125Z,568.12
2022-10-17T10:03:11.320Z,545.62
2022-10-17T10:04:11.532Z,523.12
2022-10-17T10:05:11.728Z,528.75
2022-10-17T10:06:11.957Z,556.88
2022-10-17T10:07:12.110Z,585.00
2022-10-17T10:08:12.315Z,607.50
2022-10-17T10:09:12.613Z,630.00
2022-10-17T10:10:12.713Z,624.38
2022-10-17T10:11:13.965Z,607.50
2022-10-17T10:12:13.071Z,585.00
2022-10-17T10:13:13.233Z,579.38
2022-10-17T10:14:13.444Z,601.88
2022-10-17T10:15:13.649Z,646.88
2022-10-17T10:16:13.890Z,641.25
2022-10-17T10:17:14.048Z,630.00
2022-10-17T10:18:14.276Z,630.00
2022-10-17T10:19:14.443Z,641.25
2022-10-17T10:20:14.619Z,680.62
2022-10-17T10:21:14.803Z,686.25
2022-10-17T10:22:14.978Z,691.88
2022-10-17T10:23:15.181Z,675.00
2022-10-17T10:24:15.354Z,545.62
2022-10-17T10:25:15.537Z,618.75
2022-10-17T10:26:18.933Z,618.75
2022-10-17T10:27:15.940Z,624.38
2022-10-17T10:28:16.091Z,596.25
2022-10-17T10:29:16.290Z,590.62
2022-10-17T10:30:16.529Z,601.88
2022-10-17T10:31:16.703Z,618.75
2022-10-17T10:32:16.892Z,618.75
2022-10-17T10:33:17.090Z,596.25
2022-10-17T10:34:17.237Z,568.12
2022-10-17T10:35:17.413Z,540.00
2022-10-17T10:36:17.634Z,506.25
2022-10-17T10:37:17.803Z,478.12
2022-10-17T10:38:18.034Z,466.88
2022-10-17T10:39:18.212Z,455.62
2022-10-17T10:40:18.402Z,450.00
2022-10-17T10:41:18.576Z,455.62
2022-10-17T10:42:18.745Z,461.25
2022-10-17T10:43:18.952Z,478.12
2022-10-17T10:44:19.150Z,478.12
2022-10-17T10:45:42.851Z,472.50
2022-10-17T10:46:19.566Z,466.88
2022-10-17T10:47:19.741Z,455.62
2022-10-17T10:48:19.932Z,433.12
2022-10-17T10:49:20.127Z,405.00
2022-10-17T10:50:20.330Z,376.88
2022-10-17T10:51:20.699Z,360.00
2022-10-17T10:52:20.735Z,343.12
2022-10-17T10:53:20.955Z,331.88
2022-10-17T10:54:21.139Z,326.25
2022-10-17T10:55:21.333Z,315.00
2022-10-17T10:56:21.562Z,315.00
2022-10-17T10:57:21.722Z,326.25
2022-10-17T10:58:21.922Z,354.38
2022-10-17T10:59:22.084Z,388.12
2022-10-17T11:00:22.326Z,405.00
2022-10-17T11:01:22.512Z,393.75
2022-10-17T11:02:22.672Z,376.88
2022-10-17T11:03:22.890Z,365.62
2022-10-17T11:04:23.051Z,360.00
2022-10-17T11:05:23.213Z,360.00
2022-10-17T11:06:23.475Z,365.62
2022-10-17T11:07:23.628Z,371.25
2022-10-17T11:08:23.816Z,382.50
2022-10-17T11:09:23.994Z,405.00
2022-10-17T11:10:24.207Z,444.38
2022-10-17T11:11:24.431Z,495.00
2022-10-17T11:12:24.603Z,523.12
2022-10-17T11:13:24.754Z,517.50
2022-10-17T11:14:24.956Z,511.88
2022-10-17T11:15:25.150Z,517.50
2022-10-17T11:16:25.344Z,568.12
2022-10-17T11:17:25.521Z,568.12
2022-10-17T11:18:25.814Z,551.25
2022-10-17T11:19:25.865Z,540.00
2022-10-17T11:20:26.086Z,511.88
2022-10-17T11:21:26.249Z,483.75
2022-10-17T11:22:29.039Z,450.00
2022-10-17T11:23:26.598Z,427.50
2022-10-17T11:24:26.795Z,388.12
2022-10-17T11:25:26.967Z,360.00
2022-10-17T11:26:27.200Z,360.00
2022-10-17T11:27:27.360Z,365.62
2022-10-17T11:28:27.594Z,388.12
2022-10-17T11:29:27.760Z,410.62
2022-10-17T11:30:27.977Z,405.00
2022-10-17T11:31:28.156Z,382.50
2022-10-17T11:32:28.596Z,371.25
2022-10-17T11:33:28.508Z,382.50
2022-10-17T11:34:28.723Z,388.12
2022-10-17T11:35:28.929Z,376.88
2022-10-17T11:36:29.100Z,376.88
2022-10-17T11:37:29.272Z,348.75
2022-10-17T11:38:29.426Z,320.62
2022-10-17T11:39:29.643Z,326.25
2022-10-17T11:40:29.813Z,320.62
2022-10-17T11:41:29.987Z,275.62
2022-10-17T11:42:30.533Z,230.62
2022-10-17T11:43:30.365Z,196.88
2022-10-17T11:44:30.566Z,191.25
2022-10-17T11:45:30.693Z,196.88
2022-10-17T11:46:30.930Z,202.50
2022-10-17T11:47:31.116Z,180.00
2022-10-17T11:48:31.262Z,151.88
2022-10-17T11:49:33.979Z,140.62
2022-10-17T11:52:51.789Z,112.50
2022-10-17T11:53:32.237Z,123.75
2022-10-17T11:54:32.425Z,129.38
2022-10-17T11:55:32.581Z,129.38
2022-10-17T11:56:32.813Z,123.75
2022-10-17T11:57:32.987Z,101.25
2022-10-17T11:58:33.179Z,90.00
2022-10-17T11:59:33.382Z,90.00
2022-10-17T12:00:35.775Z,84.38
2022-10-17T12:01:33.809Z,84.38
2022-10-17T12:02:33.936Z,101.25
2022-10-17T12:03:34.215Z,135.00
2022-10-17T12:04:34.424Z,129.38
2022-10-17T12:05:34.505Z,123.75
2022-10-17T12:06:34.741Z,140.62
2022-10-17T12:07:34.916Z,163.12
2022-10-17T12:08:35.100Z,180.00
2022-10-17T12:09:35.269Z,208.12
2022-10-17T12:10:35.466Z,202.50
2022-10-17T12:11:35.691Z,185.62
2022-10-17T12:12:35.898Z,140.62
2022-10-17T12:13:36.042Z,112.50
2022-10-17T12:14:36.229Z,123.75
2022-10-17T12:15:36.407Z,135.00
2022-10-17T12:16:36.646Z,191.25
2022-10-17T12:17:36.805Z,225.00
2022-10-17T12:18:36.960Z,213.75
2022-10-17T12:19:38.017Z,202.50
2022-10-17T12:20:37.378Z,191.25
2022-10-17T12:21:40.402Z,180.00
2022-10-17T12:22:38.021Z,208.12
2022-10-17T12:23:38.470Z,258.75
2022-10-17T12:24:38.303Z,303.75
2022-10-17T12:25:38.351Z,360.00
2022-10-17T12:26:38.489Z,405.00
2022-10-17T12:27:38.692Z,472.50
2022-10-17T12:28:39.512Z,517.50
2022-10-17T12:29:39.026Z,511.88
2022-10-17T12:30:39.201Z,489.38
2022-10-17T12:31:39.416Z,444.38
2022-10-17T12:33:00.588Z,410.62
2022-10-17T12:33:39.828Z,354.38
2022-10-17T12:34:39.982Z,264.38
2022-10-17T12:35:40.185Z,253.12
2022-10-17T12:36:40.400Z,258.75
2022-10-17T12:37:40.584Z,253.12
2022-10-17T12:38:40.813Z,241.88
2022-10-17T12:39:40.951Z,258.75
2022-10-17T12:40:42.229Z,270.00
2022-10-17T12:41:41.385Z,230.62
2022-10-17T12:42:41.571Z,213.75
2022-10-17T12:43:44.676Z,196.88
2022-10-17T12:44:41.924Z,129.38
2022-10-17T12:45:42.126Z,101.25
2022-10-17T12:46:42.362Z,123.75
2022-10-17T12:47:42.652Z,118.12
2022-10-17T12:48:42.692Z,101.25
2022-10-17T12:49:42.879Z,84.38
2022-10-17T12:50:43.078Z,73.12
2022-10-17T12:51:43.226Z,61.88
2022-10-17T12:52:43.544Z,45.00
2022-10-17T12:53:43.695Z,39.38
2022-10-17T12:54:53.539Z,33.75
2022-10-17T12:55:44.065Z,22.50
2022-10-17T12:56:44.221Z,11.25
2022-10-17T12:57:44.510Z,5.62
2022-10-17T12:58:44.679Z,5.62
2022-10-17T12:59:44.863Z,0.00
2022-10-17T13:00:59.572Z,5.62
2022-10-17T13:01:46.266Z,28.12
2022-10-17T13:02:45.389Z,39.38
2022-10-17T13:03:45.553Z,39.38
2022-10-17T13:04:45.736Z,45.00
2022-10-17T13:05:45.922Z,67.50
2022-10-17T13:06:46.113Z,84.38
2022-10-17T13:07:46.320Z,95.62
2022-10-17T13:08:49.776Z,106.88
2022-10-17T13:09:46.751Z,129.38
2022-10-17T13:10:49.078Z,135.00
2022-10-17T13:11:47.065Z,135.00
2022-10-17T13:12:47.238Z,140.62
2022-10-17T13:13:47.482Z,146.25
2022-10-17T13:14:47.629Z,151.88
2022-10-17T13:15:47.843Z,151.88
2022-10-17T13:16:48.058Z,146.25
2022-10-17T13:17:48.235Z,135.00
2022-10-17T13:18:48.391Z,129.38
2022-10-17T13:19:48.595Z,129.38
2022-10-17T13:20:48.802Z,146.25
2022-10-17T13:21:49.020Z,174.38
2022-10-17T13:22:49.192Z,202.50
2022-10-17T13:23:49.379Z,196.88
2022-10-17T13:24:49.660Z,163.12
2022-10-17T13:25:49.735Z,129.38
2022-10-17T13:26:49.938Z,95.62
2022-10-17T13:27:50.137Z,67.50
2022-10-17T13:28:50.426Z,56.25
2022-10-17T13:29:50.483Z,73.12
2022-10-17T13:30:52.060Z,101.25
2022-10-17T13:31:50.873Z,129.38
2022-10-17T13:32:51.036Z,151.88
2022-10-17T13:33:51.215Z,163.12
2022-10-17T13:34:51.393Z,151.88
2022-10-17T13:36:06.941Z,146.25
2022-10-17T13:36:51.804Z,163.12
2022-10-17T13:37:54.067Z,174.38
2022-10-17T13:38:52.223Z,157.50
2022-10-17T13:39:55.543Z,106.88
2022-10-17T13:40:58.017Z,67.50
2022-10-17T13:41:52.717Z,50.62
2022-10-17T13:42:52.877Z,56.25
2022-10-17T13:43:53.066Z,84.38
2022-10-17T13:44:53.245Z,95.62
2022-10-17T13:45:53.476Z,101.25
2022-10-17T13:46:53.655Z,95.62
2022-10-17T13:47:53.826Z,73.12
2022-10-17T13:48:54.008Z,56.25
2022-10-17T13:49:55.513Z,50.62
2022-10-17T13:50:54.388Z,50.62
2022-10-17T13:51:54.590Z,67.50
2022-10-17T13:52:54.735Z,84.38
2022-10-17T13:53:54.953Z,95.62
2022-10-17T13:54:55.099Z,101.25
2022-10-17T13:56:09.489Z,101.25
2022-10-17T13:57:55.714Z,112.50
2022-10-17T13:58:55.871Z,112.50
2022-10-17T13:59:56.058Z,112.50
2022-10-17T14:00:56.333Z,118.12
2022-10-17T14:01:56.478Z,129.38
2022-10-17T14:02:56.599Z,135.00
2022-10-17T14:04:08.361Z,146.25
2022-10-17T14:05:16.112Z,157.50
2022-10-17T14:05:57.257Z,174.38
2022-10-17T14:06:57.454Z,180.00
2022-10-17T14:08:16.906Z,196.88
2022-10-17T14:08:57.805Z,208.12
2022-10-17T14:09:57.996Z,213.75
2022-10-17T14:10:58.178Z,202.50
2022-10-17T14:11:58.366Z,191.25
2022-10-17T14:12:58.557Z,174.38
2022-10-17T14:13:58.709Z,157.50
2022-10-17T14:15:10.112Z,146.25
2022-10-17T14:15:59.128Z,140.62
2022-10-17T14:16:59.326Z,140.62
2022-10-17T14:18:00.247Z,135.00
2022-10-17T14:18:59.694Z,140.62
2022-10-17T14:20:16.415Z,163.12
2022-10-17T14:22:00.305Z,129.38
2022-10-17T14:24:00.723Z,84.38
2022-10-17T14:25:02.611Z,78.75
2022-10-17T14:26:01.045Z,73.12
2022-10-17T14:27:01.195Z,78.75
2022-10-17T14:28:01.364Z,95.62
2022-10-17T14:29:01.585Z,112.50
2022-10-17T14:30:01.728Z,118.12
2022-10-17T14:31:01.895Z,112.50
2022-10-17T14:32:02.134Z,106.88
2022-10-17T14:33:02.299Z,112.50
2022-10-17T14:34:02.536Z,118.12
2022-10-17T14:35:18.765Z,101.25
2022-10-17T14:36:02.903Z,90.00
2022-10-17T14:37:03.078Z,84.38
2022-10-17T14:38:03.259Z,90.00
2022-10-17T14:39:03.457Z,90.00
2022-10-17T14:40:03.640Z,84.38
2022-10-17T14:41:30.581Z,84.38
2022-10-17T14:42:04.643Z,90.00
2022-10-17T14:43:04.179Z,90.00
2022-10-17T14:44:04.378Z,90.00
2022-10-17T14:45:04.583Z,84.38
2022-10-17T14:46:04.756Z,78.75
2022-10-17T14:47:18.625Z,78.75
2022-10-17T14:48:05.167Z,78.75
2022-10-17T14:49:05.312Z,78.75
2022-10-17T14:50:05.503Z,73.12
2022-10-17T14:51:05.684Z,56.25
2022-10-17T14:52:07.796Z,56.25
2022-10-17T14:53:06.030Z,67.50
2022-10-17T14:54:06.250Z,61.88
2022-10-17T14:55:06.436Z,56.25
2022-10-17T14:56:06.606Z,56.25
2022-10-17T14:57:06.777Z,56.25
2022-10-17T14:58:06.965Z,56.25
2022-10-17T14:59:11.753Z,61.88
2022-10-17T15:00:07.290Z,56.25
2022-10-17T15:01:07.458Z,56.25
2022-10-17T15:02:07.671Z,56.25
2022-10-17T15:03:07.874Z,50.62
2022-10-17T15:04:08.005Z,50.62
2022-10-17T15:05:12.866Z,50.62
2022-10-17T15:06:08.344Z,50.62
2022-10-17T15:07:08.550Z,50.62
2022-10-17T15:08:08.782Z,39.38
2022-10-17T15:09:08.914Z,33.75
2022-10-17T15:10:09.108Z,33.75
2022-10-17T15:11:09.285Z,28.12
2022-10-17T15:12:09.573Z,28.12
2022-10-17T15:13:27.670Z,28.12
2022-10-17T15:14:09.920Z,28.12
2022-10-17T15:15:10.071Z,22.50
2022-10-17T15:16:10.279Z,22.50
2022-10-17T15:17:10.498Z,28.12
2022-10-17T15:18:10.645Z,28.12
2022-10-17T15:19:10.833Z,28.12
2022-10-17T15:20:10.997Z,28.12
2022-10-17T15:21:25.641Z,22.50
2022-10-17T15:22:11.395Z,22.50
2022-10-17T15:23:11.543Z,16.88
2022-10-17T15:24:11.725Z,16.88
2022-10-17T15:25:11.892Z,11.25
2022-10-17T15:26:12.068Z,11.25
2022-10-17T15:27:12.265Z,11.25
2022-10-17T15:28:12.436Z,11.25
2022-10-17T15:29:12.633Z,11.25
2022-10-17T15:30:12.939Z,11.25
2022-10-17T15:31:12.971Z,11.25
2022-10-17T15:32:13.163Z,11.25
2022-10-17T15:33:13.346Z,5.62
2022-10-17T15:34:13.645Z,5.62
2022-10-17T15:35:13.785Z,11.25
2022-10-17T15:36:14.027Z,11.25
2022-10-17T15:37:14.313Z,11.25
2022-10-17T15:38:14.465Z,5.62
2022-10-17T15:39:14.641Z,11.25
2022-10-17T15:40:14.796Z,11.25
2022-10-17T15:41:14.961Z,5.62
2022-10-17T15:42:15.165Z,5.62
2022-10-17T15:43:19.691Z,11.25
2022-10-17T15:44:15.560Z,16.88
2022-10-17T15:45:15.714Z,16.88
2022-10-17T15:46:15.914Z,11.25
2022-10-17T15:47:16.099Z,11.25
2022-10-17T15:48:16.284Z,11.25
2022-10-17T15:49:16.450Z,5.62
2022-10-17T15:50:16.622Z,11.25
2022-10-17T15:51:16.800Z,16.88
2022-10-17T15:52:17.014Z,22.50
2022-10-17T15:53:17.158Z,22.50
2022-10-17T15:54:17.334Z,22.50
2022-10-17T15:55:17.485Z,33.75
2022-10-17T15:56:17.668Z,33.75
2022-10-17T15:57:17.844Z,33.75
2022-10-17T15:58:18.023Z,28.12
2022-10-17T15:59:18.221Z,28.12
2022-10-17T16:00:18.394Z,22.50
2022-10-17T16:01:18.611Z,16.88
2022-10-17T16:02:18.762Z,16.88
2022-10-17T16:03:19.021Z,16.88
2022-10-17T16:04:19.205Z,11.25
2022-10-17T16:05:19.389Z,11.25
2022-10-17T16:06:19.567Z,11.25
2022-10-17T16:07:19.816Z,11.25
2022-10-17T16:08:19.908Z,11.25
2022-10-17T16:09:20.092Z,11.25
2022-10-17T16:10:20.286Z,5.62
2022-10-17T16:11:20.443Z,5.62
2022-10-17T16:12:20.672Z,5.62
2022-10-17T16:13:21.327Z,5.62
2022-10-17T16:14:21.113Z,5.62
2022-10-17T16:15:21.328Z,5.62
2022-10-17T16:16:21.625Z,5.62
2022-10-17T16:17:21.925Z,5.62
2022-10-17T16:18:22.204Z,5.62
2022-10-17T16:19:22.459Z,5.62
2022-10-17T16:20:22.671Z,5.62
2022-10-17T16:21:22.962Z,5.62
2022-10-17T16:22:23.243Z,0.00
2022-10-17T16:23:23.408Z,0.00
2022-10-17T16:24:23.612Z,0.00
2022-10-17T16:25:23.771Z,0.00
2022-10-17T16:26:23.965Z,0.00
2022-10-17T16:27:24.272Z,0.00
2022-10-17T16:28:24.636Z,0.00
2022-10-17T16:29:24.705Z,0.00
2022-10-17T16:30:24.899Z,0.00
2022-10-17T16:31:25.474Z,0.00
2022-10-17T16:32:25.378Z,0.00
2022-10-17T16:33:25.529Z,0.00
2022-10-17T16:34:25.728Z,0.00
2022-10-17T16:35:25.891Z,0.00
2022-10-17T16:36:26.073Z,0.00
2022-10-17T16:37:26.268Z,0.00
2022-10-17T16:38:26.513Z,0.00
2022-10-17T16:40:26.991Z,0.00
2022-10-17T16:41:27.161Z,0.00
2022-10-17T16:42:27.578Z,0.00
2022-10-17T16:43:27.683Z,0.00
2022-10-17T16:44:28.188Z,0.00
2022-10-17T16:45:28.469Z,0.00
2022-10-17T16:46:28.862Z,0.00
2022-10-17T16:47:29.248Z,0.00
2022-10-17T16:48:29.933Z,0.00
2022-10-17T16:49:29.941Z,0.00
2022-10-17T16:50:30.301Z,0.00
2022-10-17T16:51:30.691Z,0.00
2022-10-17T16:52:31.312Z,0.00
2022-10-17T16:53:31.391Z,0.00
2022-10-17T16:54:31.749Z,0.00